sensor_id;sensor_type;location;lat;lon;timestamp;pressure;altitude;pressure_sealevel;temperature;humidity
8160;BME280;27404;52.398;9.646;2024-03-17T00:01:32;101678.50;;;2.27;100.00
8160;BME280;27404;52.398;9.646;2024-03-17T00:03:57;101677.81;;;2.25;100.00
8160;BME280;27404;52.398;9.646;2024-03-17T00:06:24;101683.91;;;2.27;100.00
8160;BME280;27404;52.398;9.646;2024-03-17T00:08:49;101684.72;;;2.28;100.00
8160;BME280;27404;52.398;9.646;2024-03-17T00:11:15;101687.34;;;2.19;100.00
8160;BME280;27404;52.398;9.646;2024-03-17T00:13:41;101682.75;;;2.12;100.00
8160;BME280;27404;52.398;9.646;2024-03-17T00:16:06;101696.13;;;2.03;100.00
8160;BME280;27404;52.398;9.646;2024-03-17T00:18:32;101695.81;;;1.88;100.00
8160;BME280;27404;52.398;9.646;2024-03-17T00:20:57;101692.88;;;1.82;100.00
8160;BME280;27404;52.398;9.646;2024-03-17T00:23:24;101697.56;;;1.80;100.00
8160;BME280;27404;52.398;9.646;2024-03-17T00:25:49;101690.47;;;1.78;100.00
8160;BME280;27404;52.398;9.646;2024-03-17T00:28:16;101692.63;;;1.75;100.00
8160;BME280;27404;52.398;9.646;2024-03-17T00:30:41;101688.31;;;1.64;100.00
8160;BME280;27404;52.398;9.646;2024-03-17T00:33:08;101694.13;;;1.59;100.00
8160;BME280;27404;52.398;9.646;2024-03-17T00:35:35;101695.72;;;1.52;100.00
8160;BME280;27404;52.398;9.646;2024-03-17T00:38:00;101689.81;;;1.48;100.00
8160;BME280;27404;52.398;9.646;2024-03-17T00:40:28;101700.69;;;1.57;100.00
8160;BME280;27404;52.398;9.646;2024-03-17T00:42:54;101696.06;;;1.67;100.00
8160;BME280;27404;52.398;9.646;2024-03-17T00:45:19;101702.84;;;1.71;100.00
8160;BME280;27404;52.398;9.646;2024-03-17T00:47:45;101697.47;;;1.71;100.00
8160;BME280;27404;52.398;9.646;2024-03-17T00:50:11;101703.81;;;1.80;100.00
8160;BME280;27404;52.398;9.646;2024-03-17T00:52:36;101700.25;;;1.80;100.00
8160;BME280;27404;52.398;9.646;2024-03-17T00:55:02;101693.56;;;1.84;100.00
8160;BME280;27404;52.398;9.646;2024-03-17T00:57:28;101695.16;;;1.76;100.00
8160;BME280;27404;52.398;9.646;2024-03-17T00:59:54;101689.63;;;1.78;100.00
8160;BME280;27404;52.398;9.646;2024-03-17T01:02:19;101692.94;;;1.72;100.00
8160;BME280;27404;52.398;9.646;2024-03-17T01:04:47;101693.69;;;1.64;100.00
8160;BME280;27404;52.398;9.646;2024-03-17T01:07:12;101692.53;;;1.67;100.00
8160;BME280;27404;52.398;9.646;2024-03-17T01:09:38;101689.78;;;1.76;100.00
8160;BME280;27404;52.398;9.646;2024-03-17T01:12:04;101691.34;;;1.79;100.00
8160;BME280;27404;52.398;9.646;2024-03-17T01:14:31;101691.72;;;1.84;100.00
8160;BME280;27404;52.398;9.646;2024-03-17T01:16:57;101693.03;;;1.80;100.00
8160;BME280;27404;52.398;9.646;2024-03-17T01:19:23;101691.06;;;1.72;100.00
8160;BME280;27404;52.398;9.646;2024-03-17T01:21:49;101687.31;;;1.65;100.00
8160;BME280;27404;52.398;9.646;2024-03-17T01:24:14;101691.75;;;1.56;100.00
8160;BME280;27404;52.398;9.646;2024-03-17T01:26:40;101680.72;;;1.50;100.00
8160;BME280;27404;52.398;9.646;2024-03-17T01:29:05;101686.53;;;1.45;100.00
8160;BME280;27404;52.398;9.646;2024-03-17T01:31:31;101687.00;;;1.40;100.00
8160;BME280;27404;52.398;9.646;2024-03-17T01:33:56;101691.28;;;1.33;100.00
8160;BME280;27404;52.398;9.646;2024-03-17T01:36:22;101684.66;;;1.27;100.00
8160;BME280;27404;52.398;9.646;2024-03-17T01:38:47;101687.09;;;1.21;100.00
8160;BME280;27404;52.398;9.646;2024-03-17T01:41:13;101684.53;;;1.19;100.00
8160;BME280;27404;52.398;9.646;2024-03-17T01:43:39;101677.88;;;1.13;100.00
8160;BME280;27404;52.398;9.646;2024-03-17T01:46:06;101677.19;;;1.11;100.00
8160;BME280;27404;52.398;9.646;2024-03-17T01:48:31;101677.78;;;1.05;100.00
8160;BME280;27404;52.398;9.646;2024-03-17T01:50:57;101674.66;;;1.10;100.00
8160;BME280;27404;52.398;9.646;2024-03-17T01:53:23;101673.66;;;1.11;100.00
8160;BME280;27404;52.398;9.646;2024-03-17T01:55:51;101673.66;;;1.11;100.00
8160;BME280;27404;52.398;9.646;2024-03-17T01:58:20;101669.84;;;1.03;100.00
8160;BME280;27404;52.398;9.646;2024-03-17T02:00:45;101675.78;;;1.07;100.00
8160;BME280;27404;52.398;9.646;2024-03-17T02:03:12;101676.38;;;1.01;100.00
8160;BME280;27404;52.398;9.646;2024-03-17T02:05:38;101673.00;;;0.99;100.00
8160;BME280;27404;52.398;9.646;2024-03-17T02:08:05;101669.59;;;0.97;100.00
8160;BME280;27404;52.398;9.646;2024-03-17T02:10:30;101678.38;;;0.99;100.00
8160;BME280;27404;52.398;9.646;2024-03-17T02:12:55;101673.59;;;0.93;100.00
8160;BME280;27404;52.398;9.646;2024-03-17T02:15:21;101678.97;;;0.93;100.00
8160;BME280;27404;52.398;9.646;2024-03-17T02:17:47;101678.25;;;0.91;100.00
8160;BME280;27404;52.398;9.646;2024-03-17T02:20:12;101667.50;;;0.81;100.00
8160;BME280;27404;52.398;9.646;2024-03-17T02:22:39;101666.97;;;0.77;100.00
8160;BME280;27404;52.398;9.646;2024-03-17T02:25:05;101666.97;;;0.77;100.00
8160;BME280;27404;52.398;9.646;2024-03-17T02:27:34;101665.25;;;0.76;100.00
8160;BME280;27404;52.398;9.646;2024-03-17T02:29:59;101673.06;;;0.69;100.00
8160;BME280;27404;52.398;9.646;2024-03-17T02:32:25;101660.03;;;0.65;100.00
8160;BME280;27404;52.398;9.646;2024-03-17T02:34:53;101660.34;;;0.62;100.00
8160;BME280;27404;52.398;9.646;2024-03-17T02:37:19;101661.31;;;0.61;100.00
8160;BME280;27404;52.398;9.646;2024-03-17T02:39:44;101668.97;;;0.65;100.00
8160;BME280;27404;52.398;9.646;2024-03-17T02:42:10;101663.59;;;0.65;100.00
8160;BME280;27404;52.398;9.646;2024-03-17T02:44:37;101672.78;;;0.63;100.00
8160;BME280;27404;52.398;9.646;2024-03-17T02:47:04;101667.28;;;0.64;100.00
8160;BME280;27404;52.398;9.646;2024-03-17T02:49:31;101669.41;;;0.61;100.00
8160;BME280;27404;52.398;9.646;2024-03-17T02:52:06;101660.50;;;0.50;100.00
8160;BME280;27404;52.398;9.646;2024-03-17T02:54:33;101654.41;;;0.48;100.00
8160;BME280;27404;52.398;9.646;2024-03-17T02:57:00;101654.97;;;0.42;100.00
8160;BME280;27404;52.398;9.646;2024-03-17T02:59:26;101659.94;;;0.47;100.00
8160;BME280;27404;52.398;9.646;2024-03-17T03:01:52;101654.28;;;0.50;100.00
8160;BME280;27404;52.398;9.646;2024-03-17T03:04:17;101662.47;;;0.48;100.00
8160;BME280;27404;52.398;9.646;2024-03-17T03:06:43;101661.63;;;0.48;100.00
8160;BME280;27404;52.398;9.646;2024-03-17T03:09:08;101660.34;;;0.52;100.00
8160;BME280;27404;52.398;9.646;2024-03-17T03:11:39;101669.84;;;0.56;100.00
8160;BME280;27404;52.398;9.646;2024-03-17T03:14:05;101668.69;;;0.58;100.00
8160;BME280;27404;52.398;9.646;2024-03-17T03:16:31;101672.81;;;0.43;100.00
8160;BME280;27404;52.398;9.646;2024-03-17T03:18:56;101670.97;;;0.34;100.00
8160;BME280;27404;52.398;9.646;2024-03-17T03:21:22;101673.28;;;0.28;100.00
8160;BME280;27404;52.398;9.646;2024-03-17T03:23:47;101670.88;;;0.25;100.00
8160;BME280;27404;52.398;9.646;2024-03-17T03:26:13;101681.91;;;0.22;100.00
8160;BME280;27404;52.398;9.646;2024-03-17T03:28:38;101666.88;;;0.20;100.00
8160;BME280;27404;52.398;9.646;2024-03-17T03:31:04;101680.19;;;0.21;100.00
8160;BME280;27404;52.398;9.646;2024-03-17T03:33:30;101672.56;;;0.26;100.00
8160;BME280;27404;52.398;9.646;2024-03-17T03:35:55;101672.53;;;0.36;100.00
8160;BME280;27404;52.398;9.646;2024-03-17T03:38:21;101663.91;;;0.42;100.00
8160;BME280;27404;52.398;9.646;2024-03-17T03:40:47;101661.78;;;0.36;100.00
8160;BME280;27404;52.398;9.646;2024-03-17T03:43:13;101655.97;;;0.41;100.00
8160;BME280;27404;52.398;9.646;2024-03-17T03:45:39;101661.75;;;0.46;100.00
8160;BME280;27404;52.398;9.646;2024-03-17T03:48:06;101669.41;;;0.41;100.00
8160;BME280;27404;52.398;9.646;2024-03-17T03:50:34;101671.41;;;0.39;100.00
8160;BME280;27404;52.398;9.646;2024-03-17T03:53:00;101667.28;;;0.35;100.00
8160;BME280;27404;52.398;9.646;2024-03-17T03:55:25;101675.97;;;0.28;100.00
8160;BME280;27404;52.398;9.646;2024-03-17T03:57:51;101669.72;;;0.18;100.00
8160;BME280;27404;52.398;9.646;2024-03-17T04:00:19;101671.41;;;0.09;100.00
8160;BME280;27404;52.398;9.646;2024-03-17T04:02:50;101668.88;;;0.08;100.00
8160;BME280;27404;52.398;9.646;2024-03-17T04:05:16;101677.09;;;0.16;100.00
8160;BME280;27404;52.398;9.646;2024-03-17T04:07:42;101673.53;;;0.16;100.00
8160;BME280;27404;52.398;9.646;2024-03-17T04:10:11;101675.66;;;0.12;100.00
8160;BME280;27404;52.398;9.646;2024-03-17T04:12:36;101662.78;;;0.06;100.00
8160;BME280;27404;52.398;9.646;2024-03-17T04:15:04;101668.72;;;-0.01;100.00
8160;BME280;27404;52.398;9.646;2024-03-17T04:17:31;101669.28;;;0.03;100.00
8160;BME280;27404;52.398;9.646;2024-03-17T04:19:58;101668.00;;;-0.03;100.00
8160;BME280;27404;52.398;9.646;2024-03-17T04:22:23;101665.47;;;-0.04;100.00
8160;BME280;27404;52.398;9.646;2024-03-17T04:24:49;101667.19;;;-0.03;100.00
8160;BME280;27404;52.398;9.646;2024-03-17T04:27:25;101665.59;;;-0.06;100.00
8160;BME280;27404;52.398;9.646;2024-03-17T04:29:52;101667.88;;;-0.01;100.00
8160;BME280;27404;52.398;9.646;2024-03-17T04:32:19;101677.50;;;-0.08;100.00
8160;BME280;27404;52.398;9.646;2024-03-17T04:34:44;101681.13;;;-0.19;100.00
8160;BME280;27404;52.398;9.646;2024-03-17T04:37:10;101677.06;;;-0.13;100.00
8160;BME280;27404;52.398;9.646;2024-03-17T04:39:41;101678.19;;;-0.16;100.00
8160;BME280;27404;52.398;9.646;2024-03-17T04:42:11;101681.00;;;-0.18;100.00
8160;BME280;27404;52.398;9.646;2024-03-17T04:44:37;101682.13;;;-0.30;100.00
8160;BME280;27404;52.398;9.646;2024-03-17T04:47:03;101679.16;;;-0.27;100.00
8160;BME280;27404;52.398;9.646;2024-03-17T04:49:42;101683.56;;;-0.16;100.00
8160;BME280;27404;52.398;9.646;2024-03-17T04:52:12;101689.63;;;-0.14;100.00
8160;BME280;27404;52.398;9.646;2024-03-17T04:54:38;101686.94;;;-0.14;100.00
8160;BME280;27404;52.398;9.646;2024-03-17T04:57:03;101690.34;;;-0.22;100.00
8160;BME280;27404;52.398;9.646;2024-03-17T04:59:29;101687.78;;;-0.23;100.00
8160;BME280;27404;52.398;9.646;2024-03-17T05:01:55;101697.53;;;-0.22;100.00
8160;BME280;27404;52.398;9.646;2024-03-17T05:04:21;101693.16;;;-0.23;100.00
8160;BME280;27404;52.398;9.646;2024-03-17T05:06:48;101696.97;;;-0.26;100.00
8160;BME280;27404;52.398;9.646;2024-03-17T05:09:18;101699.34;;;-0.33;100.00
8160;BME280;27404;52.398;9.646;2024-03-17T05:11:44;101701.75;;;-0.30;100.00
8160;BME280;27404;52.398;9.646;2024-03-17T05:14:09;101705.44;;;-0.31;100.00
8160;BME280;27404;52.398;9.646;2024-03-17T05:16:35;101708.72;;;-0.27;100.00
8160;BME280;27404;52.398;9.646;2024-03-17T05:19:01;101707.84;;;-0.27;100.00
8160;BME280;27404;52.398;9.646;2024-03-17T05:21:26;101708.28;;;-0.32;100.00
8160;BME280;27404;52.398;9.646;2024-03-17T05:23:55;101705.16;;;-0.37;100.00
8160;BME280;27404;52.398;9.646;2024-03-17T05:26:20;101706.31;;;-0.30;100.00
8160;BME280;27404;52.398;9.646;2024-03-17T05:28:46;101705.31;;;-0.19;100.00
8160;BME280;27404;52.398;9.646;2024-03-17T05:31:11;101711.53;;;-0.28;100.00
8160;BME280;27404;52.398;9.646;2024-03-17T05:33:40;101709.44;;;-0.15;100.00
8160;BME280;27404;52.398;9.646;2024-03-17T05:36:06;101717.22;;;-0.22;100.00
8160;BME280;27404;52.398;9.646;2024-03-17T05:38:31;101711.53;;;-0.28;100.00
8160;BME280;27404;52.398;9.646;2024-03-17T05:41:04;101709.69;;;-0.28;100.00
8160;BME280;27404;52.398;9.646;2024-03-17T05:43:31;101713.38;;;-0.19;100.00
8160;BME280;27404;52.398;9.646;2024-03-17T05:45:59;101716.66;;;-0.16;100.00
8160;BME280;27404;52.398;9.646;2024-03-17T05:48:25;101721.28;;;-0.27;100.00
8160;BME280;27404;52.398;9.646;2024-03-17T05:50:50;101720.44;;;-0.28;100.00
8160;BME280;27404;52.398;9.646;2024-03-17T05:53:17;101722.72;;;-0.23;100.00
8160;BME280;27404;52.398;9.646;2024-03-17T05:55:44;101727.97;;;-0.12;100.00
8160;BME280;27404;52.398;9.646;2024-03-17T05:58:10;101734.22;;;0.08;100.00
8160;BME280;27404;52.398;9.646;2024-03-17T06:00:36;101730.28;;;0.12;100.00
8160;BME280;27404;52.398;9.646;2024-03-17T06:03:03;101732.69;;;0.16;100.00
8160;BME280;27404;52.398;9.646;2024-03-17T06:05:32;101735.81;;;0.21;100.00
8160;BME280;27404;52.398;9.646;2024-03-17T06:07:58;101734.00;;;0.21;100.00
8160;BME280;27404;52.398;9.646;2024-03-17T06:10:23;101734.53;;;0.25;100.00
8160;BME280;27404;52.398;9.646;2024-03-17T06:12:50;101730.84;;;0.36;100.00
8160;BME280;27404;52.398;9.646;2024-03-17T06:15:16;101731.44;;;0.59;100.00
8160;BME280;27404;52.398;9.646;2024-03-17T06:17:42;101736.09;;;0.67;100.00
8160;BME280;27404;52.398;9.646;2024-03-17T06:20:08;101728.03;;;0.67;100.00
8160;BME280;27404;52.398;9.646;2024-03-17T06:22:36;101731.00;;;0.64;100.00
8160;BME280;27404;52.398;9.646;2024-03-17T06:25:02;101731.56;;;0.77;100.00
8160;BME280;27404;52.398;9.646;2024-03-17T06:27:27;101734.22;;;0.87;100.00
8160;BME280;27404;52.398;9.646;2024-03-17T06:29:54;101733.81;;;0.92;100.00
8160;BME280;27404;52.398;9.646;2024-03-17T06:32:20;101736.59;;;1.00;100.00
8160;BME280;27404;52.398;9.646;2024-03-17T06:34:46;101738.81;;;1.24;100.00
8160;BME280;27404;52.398;9.646;2024-03-17T06:37:11;101742.59;;;1.41;100.00
8160;BME280;27404;52.398;9.646;2024-03-17T06:39:37;101736.63;;;1.38;100.00
8160;BME280;27404;52.398;9.646;2024-03-17T06:42:03;101729.81;;;1.43;100.00
8160;BME280;27404;52.398;9.646;2024-03-17T06:44:28;101732.06;;;1.48;100.00
8160;BME280;27404;52.398;9.646;2024-03-17T06:46:55;101739.31;;;1.47;100.00
8160;BME280;27404;52.398;9.646;2024-03-17T06:49:21;101723.19;;;1.66;100.00
8160;BME280;27404;52.398;9.646;2024-03-17T06:51:46;101728.47;;;1.85;100.00
8160;BME280;27404;52.398;9.646;2024-03-17T06:54:13;101724.19;;;1.92;100.00
8160;BME280;27404;52.398;9.646;2024-03-17T06:56:39;101729.03;;;2.07;100.00
8160;BME280;27404;52.398;9.646;2024-03-17T06:59:05;101724.19;;;2.29;100.00
8160;BME280;27404;52.398;9.646;2024-03-17T07:01:30;101719.56;;;2.39;100.00
8160;BME280;27404;52.398;9.646;2024-03-17T07:03:56;101725.75;;;2.49;100.00
8160;BME280;27404;52.398;9.646;2024-03-17T07:06:21;101727.28;;;2.52;100.00
8160;BME280;27404;52.398;9.646;2024-03-17T07:08:47;101728.53;;;2.58;100.00
8160;BME280;27404;52.398;9.646;2024-03-17T07:11:12;101727.72;;;2.65;100.00
8160;BME280;27404;52.398;9.646;2024-03-17T07:13:38;101724.00;;;2.85;100.00
8160;BME280;27404;52.398;9.646;2024-03-17T07:16:07;101715.38;;;3.07;100.00
8160;BME280;27404;52.398;9.646;2024-03-17T07:18:34;101711.28;;;3.30;100.00
8160;BME280;27404;52.398;9.646;2024-03-17T07:21:01;101712.84;;;3.40;100.00
8160;BME280;27404;52.398;9.646;2024-03-17T07:23:29;101715.59;;;3.49;100.00
8160;BME280;27404;52.398;9.646;2024-03-17T07:25:58;101713.78;;;3.58;100.00
8160;BME280;27404;52.398;9.646;2024-03-17T07:28:25;101716.16;;;3.69;100.00
8160;BME280;27404;52.398;9.646;2024-03-17T07:30:52;101719.44;;;3.81;100.00
8160;BME280;27404;52.398;9.646;2024-03-17T07:33:19;101718.59;;;3.89;100.00
8160;BME280;27404;52.398;9.646;2024-03-17T07:35:52;101718.44;;;3.98;100.00
8160;BME280;27404;52.398;9.646;2024-03-17T07:38:18;101723.06;;;4.06;100.00
8160;BME280;27404;52.398;9.646;2024-03-17T07:40:45;101720.53;;;4.21;100.00
8160;BME280;27404;52.398;9.646;2024-03-17T07:43:11;101720.38;;;4.31;100.00
8160;BME280;27404;52.398;9.646;2024-03-17T07:45:37;101722.75;;;4.42;100.00
8160;BME280;27404;52.398;9.646;2024-03-17T07:48:03;101718.91;;;4.53;100.00
8160;BME280;27404;52.398;9.646;2024-03-17T07:50:28;101727.19;;;4.60;100.00
8160;BME280;27404;52.398;9.646;2024-03-17T07:52:54;101727.66;;;4.72;100.00
8160;BME280;27404;52.398;9.646;2024-03-17T07:55:19;101734.63;;;4.83;100.00
8160;BME280;27404;52.398;9.646;2024-03-17T07:57:44;101724.81;;;4.90;100.00
8160;BME280;27404;52.398;9.646;2024-03-17T08:00:11;101730.88;;;5.00;100.00
8160;BME280;27404;52.398;9.646;2024-03-17T08:02:46;101728.66;;;5.12;100.00
8160;BME280;27404;52.398;9.646;2024-03-17T08:05:12;101727.66;;;5.13;100.00
8160;BME280;27404;52.398;9.646;2024-03-17T08:07:38;101715.91;;;5.29;100.00
8160;BME280;27404;52.398;9.646;2024-03-17T08:10:04;101713.81;;;5.48;100.00
8160;BME280;27404;52.398;9.646;2024-03-17T08:12:30;101706.47;;;5.57;100.00
8160;BME280;27404;52.398;9.646;2024-03-17T08:14:55;101709.72;;;5.60;100.00
8160;BME280;27404;52.398;9.646;2024-03-17T08:17:20;101700.47;;;5.70;100.00
8160;BME280;27404;52.398;9.646;2024-03-17T08:19:46;101706.22;;;5.75;100.00
8160;BME280;27404;52.398;9.646;2024-03-17T08:22:13;101700.75;;;5.83;100.00
8160;BME280;27404;52.398;9.646;2024-03-17T08:24:38;101704.47;;;5.90;100.00
8160;BME280;27404;52.398;9.646;2024-03-17T08:27:04;101695.59;;;5.97;100.00
8160;BME280;27404;52.398;9.646;2024-03-17T08:29:30;101699.31;;;6.04;100.00
8160;BME280;27404;52.398;9.646;2024-03-17T08:31:55;101697.09;;;5.99;100.00
8160;BME280;27404;52.398;9.646;2024-03-17T08:34:20;101692.38;;;6.01;100.00
8160;BME280;27404;52.398;9.646;2024-03-17T08:36:46;101698.41;;;6.12;100.00
8160;BME280;27404;52.398;9.646;2024-03-17T08:39:11;101695.97;;;6.25;100.00
8160;BME280;27404;52.398;9.646;2024-03-17T08:41:37;101688.41;;;6.35;100.00
8160;BME280;27404;52.398;9.646;2024-03-17T08:44:02;101678.88;;;6.40;100.00
8160;BME280;27404;52.398;9.646;2024-03-17T08:46:28;101679.84;;;6.47;100.00
8160;BME280;27404;52.398;9.646;2024-03-17T08:48:53;101681.84;;;6.53;100.00
8160;BME280;27404;52.398;9.646;2024-03-17T08:51:19;101681.88;;;6.68;100.00
8160;BME280;27404;52.398;9.646;2024-03-17T08:53:44;101675.31;;;6.77;100.00
8160;BME280;27404;52.398;9.646;2024-03-17T08:56:10;101673.19;;;6.88;100.00
8160;BME280;27404;52.398;9.646;2024-03-17T08:58:35;101670.00;;;6.99;100.00
8160;BME280;27404;52.398;9.646;2024-03-17T09:01:08;101674.59;;;7.14;100.00
8160;BME280;27404;52.398;9.646;2024-03-17T09:03:34;101673.69;;;7.21;100.00
8160;BME280;27404;52.398;9.646;2024-03-17T09:06:00;101673.19;;;7.33;100.00
8160;BME280;27404;52.398;9.646;2024-03-17T09:08:26;101675.66;;;7.28;100.00
8160;BME280;27404;52.398;9.646;2024-03-17T09:10:53;101679.75;;;7.38;100.00
8160;BME280;27404;52.398;9.646;2024-03-17T09:13:23;101673.66;;;7.51;100.00
8160;BME280;27404;52.398;9.646;2024-03-17T09:16:00;101677.19;;;7.67;100.00
8160;BME280;27404;52.398;9.646;2024-03-17T09:18:26;101678.41;;;7.64;100.00
8160;BME280;27404;52.398;9.646;2024-03-17T09:21:08;101678.66;;;7.84;100.00
8160;BME280;27404;52.398;9.646;2024-03-17T09:23:34;101680.09;;;8.02;100.00
8160;BME280;27404;52.398;9.646;2024-03-17T09:26:01;101678.00;;;8.19;100.00
8160;BME280;27404;52.398;9.646;2024-03-17T09:28:28;101674.59;;;8.39;100.00
8160;BME280;27404;52.398;9.646;2024-03-17T09:30:54;101681.72;;;8.40;100.00
8160;BME280;27404;52.398;9.646;2024-03-17T09:33:21;101679.25;;;8.45;100.00
8160;BME280;27404;52.398;9.646;2024-03-17T09:35:57;101688.22;;;8.39;100.00
8160;BME280;27404;52.398;9.646;2024-03-17T09:38:23;101678.16;;;8.18;100.00
8160;BME280;27404;52.398;9.646;2024-03-17T09:40:50;101676.16;;;8.05;100.00
8160;BME280;27404;52.398;9.646;2024-03-17T09:43:18;101690.38;;;8.43;100.00
8160;BME280;27404;52.398;9.646;2024-03-17T09:45:44;101688.59;;;8.79;100.00
8160;BME280;27404;52.398;9.646;2024-03-17T09:48:14;101692.22;;;9.15;100.00
8160;BME280;27404;52.398;9.646;2024-03-17T09:50:40;101695.88;;;9.36;100.00
8160;BME280;27404;52.398;9.646;2024-03-17T09:53:06;101695.47;;;9.39;100.00
8160;BME280;27404;52.398;9.646;2024-03-17T09:55:36;101692.03;;;9.58;100.00
8160;BME280;27404;52.398;9.646;2024-03-17T09:58:02;101686.22;;;9.82;100.00
8160;BME280;27404;52.398;9.646;2024-03-17T10:00:28;101681.44;;;9.97;100.00
8160;BME280;27404;52.398;9.646;2024-03-17T10:02:53;101675.75;;;9.92;100.00
8160;BME280;27404;52.398;9.646;2024-03-17T10:05:23;101681.44;;;9.90;100.00
8160;BME280;27404;52.398;9.646;2024-03-17T10:07:50;101685.00;;;9.91;100.00
8160;BME280;27404;52.398;9.646;2024-03-17T10:10:16;101672.22;;;10.05;100.00
8160;BME280;27404;52.398;9.646;2024-03-17T10:12:43;101678.09;;;10.02;100.00
8160;BME280;27404;52.398;9.646;2024-03-17T10:15:11;101664.00;;;9.91;100.00
8160;BME280;27404;52.398;9.646;2024-03-17T10:17:40;101667.78;;;10.04;100.00
8160;BME280;27404;52.398;9.646;2024-03-17T10:22:57;101675.81;;;10.32;100.00
8160;BME280;27404;52.398;9.646;2024-03-17T10:25:30;101664.75;;;10.54;100.00
8160;BME280;27404;52.398;9.646;2024-03-17T10:27:56;101674.22;;;10.58;100.00
8160;BME280;27404;52.398;9.646;2024-03-17T10:30:23;101669.13;;;10.89;100.00
8160;BME280;27404;52.398;9.646;2024-03-17T10:32:56;101678.38;;;11.01;100.00
8160;BME280;27404;52.398;9.646;2024-03-17T10:38:02;101676.28;;;10.36;100.00
8160;BME280;27404;52.398;9.646;2024-03-17T10:40:29;101682.97;;;10.33;100.00
8160;BME280;27404;52.398;9.646;2024-03-17T10:42:56;101682.38;;;10.38;100.00
8160;BME280;27404;52.398;9.646;2024-03-17T10:45:22;101680.72;;;10.71;100.00
8160;BME280;27404;52.398;9.646;2024-03-17T10:47:50;101684.50;;;10.83;100.00
8160;BME280;27404;52.398;9.646;2024-03-17T10:50:20;101676.91;;;10.99;100.00
8160;BME280;27404;52.398;9.646;2024-03-17T10:52:48;101672.91;;;10.94;100.00
8160;BME280;27404;52.398;9.646;2024-03-17T10:55:24;101673.72;;;11.15;100.00
8160;BME280;27404;52.398;9.646;2024-03-17T10:57:54;101663.78;;;11.28;100.00
8160;BME280;27404;52.398;9.646;2024-03-17T11:00:24;101659.94;;;11.49;100.00
8160;BME280;27404;52.398;9.646;2024-03-17T11:02:53;101667.91;;;11.57;100.00
8160;BME280;27404;52.398;9.646;2024-03-17T11:05:25;101662.47;;;11.44;100.00
8160;BME280;27404;52.398;9.646;2024-03-17T11:07:55;101661.22;;;11.39;100.00
8160;BME280;27404;52.398;9.646;2024-03-17T11:10:35;101655.97;;;11.31;99.67
8160;BME280;27404;52.398;9.646;2024-03-17T11:13:04;101663.06;;;10.80;99.39
8160;BME280;27404;52.398;9.646;2024-03-17T11:20:37;101650.66;;;10.71;100.00
8160;BME280;27404;52.398;9.646;2024-03-17T11:23:03;101648.34;;;10.54;100.00
8160;BME280;27404;52.398;9.646;2024-03-17T11:28:44;101652.13;;;10.46;100.00
8160;BME280;27404;52.398;9.646;2024-03-17T11:31:04;101656.69;;;10.32;100.00
8160;BME280;27404;52.398;9.646;2024-03-17T11:38:58;101646.75;;;9.98;100.00
8160;BME280;27404;52.398;9.646;2024-03-17T11:41:37;101638.59;;;10.11;100.00
8160;BME280;27404;52.398;9.646;2024-03-17T11:47:04;101627.03;;;10.09;100.00
8160;BME280;27404;52.398;9.646;2024-03-17T11:49:33;101626.78;;;9.84;100.00
8160;BME280;27404;52.398;9.646;2024-03-17T11:52:01;101630.38;;;9.91;100.00
8160;BME280;27404;52.398;9.646;2024-03-17T11:54:29;101619.44;;;9.84;100.00
8160;BME280;27404;52.398;9.646;2024-03-17T11:57:00;101624.19;;;9.62;100.00
8160;BME280;27404;52.398;9.646;2024-03-17T11:59:25;101618.47;;;9.43;100.00
8160;BME280;27404;52.398;9.646;2024-03-17T12:01:51;101620.78;;;9.46;100.00
8160;BME280;27404;52.398;9.646;2024-03-17T12:04:20;101619.41;;;9.71;100.00
8160;BME280;27404;52.398;9.646;2024-03-17T12:06:47;101622.19;;;9.84;100.00
8160;BME280;27404;52.398;9.646;2024-03-17T12:09:20;101615.66;;;9.92;100.00
8160;BME280;27404;52.398;9.646;2024-03-17T12:12:10;101614.03;;;10.25;100.00
8160;BME280;27404;52.398;9.646;2024-03-17T12:14:39;101610.28;;;10.39;100.00
8160;BME280;27404;52.398;9.646;2024-03-17T12:17:12;101611.53;;;10.63;100.00
8160;BME280;27404;52.398;9.646;2024-03-17T12:19:44;101607.25;;;11.01;97.53
8160;BME280;27404;52.398;9.646;2024-03-17T12:22:16;101593.25;;;11.30;96.08
8160;BME280;27404;52.398;9.646;2024-03-17T12:24:43;101590.28;;;11.31;94.54
8160;BME280;27404;52.398;9.646;2024-03-17T12:27:17;101590.13;;;11.65;95.81
8160;BME280;27404;52.398;9.646;2024-03-17T12:29:43;101590.59;;;11.94;93.20
8160;BME280;27404;52.398;9.646;2024-03-17T12:32:18;101579.88;;;11.53;87.93
8160;BME280;27404;52.398;9.646;2024-03-17T12:34:45;101576.59;;;11.31;94.58
8160;BME280;27404;52.398;9.646;2024-03-17T12:37:21;101579.94;;;11.40;93.90
8160;BME280;27404;52.398;9.646;2024-03-17T12:39:47;101575.16;;;11.29;94.44
8160;BME280;27404;52.398;9.646;2024-03-17T12:42:14;101573.75;;;11.13;92.47
8160;BME280;27404;52.398;9.646;2024-03-17T12:47:21;101573.09;;;11.24;96.54
8160;BME280;27404;52.398;9.646;2024-03-17T12:49:47;101568.06;;;11.53;95.22
8160;BME280;27404;52.398;9.646;2024-03-17T12:52:39;101570.75;;;11.60;92.69
8160;BME280;27404;52.398;9.646;2024-03-17T12:55:07;101565.16;;;11.48;91.15
8160;BME280;27404;52.398;9.646;2024-03-17T13:00:44;101566.50;;;11.70;91.40
8160;BME280;27404;52.398;9.646;2024-03-17T13:03:25;101569.69;;;11.29;85.81
8160;BME280;27404;52.398;9.646;2024-03-17T13:05:51;101563.63;;;11.13;86.42
8160;BME280;27404;52.398;9.646;2024-03-17T13:08:17;101566.59;;;11.11;85.19
8160;BME280;27404;52.398;9.646;2024-03-17T13:10:42;101564.09;;;11.03;91.83
8160;BME280;27404;52.398;9.646;2024-03-17T13:13:09;101558.81;;;11.02;89.48
8160;BME280;27404;52.398;9.646;2024-03-17T13:15:35;101563.47;;;11.01;88.88
8160;BME280;27404;52.398;9.646;2024-03-17T13:18:02;101560.75;;;11.01;88.41
8160;BME280;27404;52.398;9.646;2024-03-17T13:20:29;101561.59;;;10.95;89.86
8160;BME280;27404;52.398;9.646;2024-03-17T13:22:56;101556.81;;;10.70;87.23
8160;BME280;27404;52.398;9.646;2024-03-17T13:25:27;101557.47;;;10.65;87.81